sensor_id;sensor_type;location;lat;lon;timestamp;pressure;altitude;pressure_sealevel;temperature;humidity
12969;BME280;6549;53.128;8.182;2023-02-02T00:01:20;101289.25;;;5.55;100.00
12969;BME280;6549;53.128;8.182;2023-02-02T00:04:22;101293.22;;;5.58;100.00
12969;BME280;6549;53.128;8.182;2023-02-02T00:07:22;101290.03;;;5.56;100.00
12969;BME280;6549;53.128;8.182;2023-02-02T00:10:22;101292.44;;;5.57;100.00
12969;BME280;6549;53.128;8.182;2023-02-02T00:13:23;101290.75;;;5.65;100.00
12969;BME280;6549;53.128;8.182;2023-02-02T00:19:28;101283.09;;;5.58;100.00
12969;BME280;6549;53.128;8.182;2023-02-02T00:22:29;101287.66;;;5.54;100.00
12969;BME280;6549;53.128;8.182;2023-02-02T00:25:30;101282.19;;;5.54;100.00
12969;BME280;6549;53.128;8.182;2023-02-02T00:28:30;101292.75;;;5.56;100.00
12969;BME280;6549;53.128;8.182;2023-02-02T00:31:31;101286.84;;;5.54;100.00
12969;BME280;6549;53.128;8.182;2023-02-02T00:34:32;101286.50;;;5.43;100.00
12969;BME280;6549;53.128;8.182;2023-02-02T00:37:32;101289.00;;;5.48;100.00
12969;BME280;6549;53.128;8.182;2023-02-02T00:40:33;101302.06;;;5.42;100.00
12969;BME280;6549;53.128;8.182;2023-02-02T00:43:33;101296.38;;;5.35;100.00
12969;BME280;6549;53.128;8.182;2023-02-02T00:46:33;101295.56;;;5.35;100.00
12969;BME280;6549;53.128;8.182;2023-02-02T00:49:34;101316.91;;;5.33;100.00
12969;BME280;6549;53.128;8.182;2023-02-02T00:52:34;101304.19;;;5.37;100.00
12969;BME280;6549;53.128;8.182;2023-02-02T00:55:34;101302.25;;;5.37;100.00
12969;BME280;6549;53.128;8.182;2023-02-02T00:58:35;101317.41;;;5.47;100.00
12969;BME280;6549;53.128;8.182;2023-02-02T01:01:35;101322.59;;;5.40;100.00
12969;BME280;6549;53.128;8.182;2023-02-02T01:04:36;101326.78;;;5.37;100.00
12969;BME280;6549;53.128;8.182;2023-02-02T01:07:36;101333.56;;;5.31;100.00
12969;BME280;6549;53.128;8.182;2023-02-02T01:10:37;101335.25;;;5.24;100.00
12969;BME280;6549;53.128;8.182;2023-02-02T01:13:37;101338.66;;;5.21;100.00
12969;BME280;6549;53.128;8.182;2023-02-02T01:16:37;101336.94;;;5.16;100.00
12969;BME280;6549;53.128;8.182;2023-02-02T01:19:38;101331.22;;;5.09;100.00
12969;BME280;6549;53.128;8.182;2023-02-02T01:22:38;101343.59;;;5.07;100.00
12969;BME280;6549;53.128;8.182;2023-02-02T01:25:38;101346.13;;;5.12;100.00
12969;BME280;6549;53.128;8.182;2023-02-02T01:28:39;101340.19;;;5.10;100.00
12969;BME280;6549;53.128;8.182;2023-02-02T01:31:40;101333.50;;;5.07;100.00
12969;BME280;6549;53.128;8.182;2023-02-02T01:34:41;101336.22;;;5.07;100.00
12969;BME280;6549;53.128;8.182;2023-02-02T01:37:42;101342.00;;;5.06;100.00
12969;BME280;6549;53.128;8.182;2023-02-02T01:40:48;101344.19;;;5.12;100.00
12969;BME280;6549;53.128;8.182;2023-02-02T01:43:52;101355.41;;;5.11;100.00
12969;BME280;6549;53.128;8.182;2023-02-02T01:46:54;101347.25;;;5.11;100.00
12969;BME280;6549;53.128;8.182;2023-02-02T01:49:54;101348.91;;;5.03;100.00
12969;BME280;6549;53.128;8.182;2023-02-02T01:52:57;101360.13;;;5.02;100.00
12969;BME280;6549;53.128;8.182;2023-02-02T01:56:00;101365.78;;;4.96;100.00
12969;BME280;6549;53.128;8.182;2023-02-02T01:59:02;101355.81;;;5.01;100.00
12969;BME280;6549;53.128;8.182;2023-02-02T02:02:04;101367.13;;;4.90;100.00
12969;BME280;6549;53.128;8.182;2023-02-02T02:05:06;101363.94;;;4.88;100.00
12969;BME280;6549;53.128;8.182;2023-02-02T02:08:14;101366.84;;;4.83;100.00
12969;BME280;6549;53.128;8.182;2023-02-02T02:11:14;101365.72;;;4.84;100.00
12969;BME280;6549;53.128;8.182;2023-02-02T02:14:15;101377.09;;;4.86;100.00
12969;BME280;6549;53.128;8.182;2023-02-02T02:21:14;101389.09;;;4.85;100.00
12969;BME280;6549;53.128;8.182;2023-02-02T02:28:46;101396.06;;;4.74;100.00
12969;BME280;6549;53.128;8.182;2023-02-02T02:38:40;101392.69;;;4.48;100.00
12969;BME280;6549;53.128;8.182;2023-02-02T02:41:48;101402.63;;;4.44;100.00
12969;BME280;6549;53.128;8.182;2023-02-02T02:44:49;101401.25;;;4.38;100.00
12969;BME280;6549;53.128;8.182;2023-02-02T02:47:51;101400.16;;;4.30;100.00
12969;BME280;6549;53.128;8.182;2023-02-02T02:50:51;101395.81;;;4.29;100.00
12969;BME280;6549;53.128;8.182;2023-02-02T02:53:52;101409.44;;;4.29;100.00
12969;BME280;6549;53.128;8.182;2023-02-02T03:00:22;101409.09;;;4.31;100.00
12969;BME280;6549;53.128;8.182;2023-02-02T03:07:09;101415.34;;;4.31;100.00
12969;BME280;6549;53.128;8.182;2023-02-02T03:10:14;101422.25;;;4.29;100.00
12969;BME280;6549;53.128;8.182;2023-02-02T03:13:16;101422.44;;;4.24;100.00
12969;BME280;6549;53.128;8.182;2023-02-02T03:16:16;101424.22;;;4.20;100.00
12969;BME280;6549;53.128;8.182;2023-02-02T03:19:17;101421.00;;;4.18;100.00
12969;BME280;6549;53.128;8.182;2023-02-02T03:22:18;101428.72;;;4.16;100.00
12969;BME280;6549;53.128;8.182;2023-02-02T03:25:18;101426.44;;;4.18;100.00
12969;BME280;6549;53.128;8.182;2023-02-02T03:28:18;101443.09;;;4.16;100.00
12969;BME280;6549;53.128;8.182;2023-02-02T03:31:20;101437.31;;;4.18;100.00
12969;BME280;6549;53.128;8.182;2023-02-02T03:34:20;101441.47;;;4.24;100.00
12969;BME280;6549;53.128;8.182;2023-02-02T03:37:21;101436.84;;;4.24;100.00
12969;BME280;6549;53.128;8.182;2023-02-02T03:40:21;101444.19;;;4.24;100.00
12969;BME280;6549;53.128;8.182;2023-02-02T03:43:22;101439.88;;;4.23;100.00
12969;BME280;6549;53.128;8.182;2023-02-02T03:46:23;101451.72;;;4.18;100.00
12969;BME280;6549;53.128;8.182;2023-02-02T03:49:23;101454.31;;;4.15;100.00
12969;BME280;6549;53.128;8.182;2023-02-02T03:52:24;101455.44;;;4.14;100.00
12969;BME280;6549;53.128;8.182;2023-02-02T03:55:24;101471.59;;;4.10;100.00
12969;BME280;6549;53.128;8.182;2023-02-02T03:58:24;101467.59;;;4.07;100.00
12969;BME280;6549;53.128;8.182;2023-02-02T04:01:27;101472.09;;;4.03;100.00
12969;BME280;6549;53.128;8.182;2023-02-02T04:04:28;101470.97;;;4.04;100.00
12969;BME280;6549;53.128;8.182;2023-02-02T04:07:28;101478.66;;;4.02;100.00
12969;BME280;6549;53.128;8.182;2023-02-02T04:10:29;101481.69;;;4.01;100.00
12969;BME280;6549;53.128;8.182;2023-02-02T04:13:29;101487.94;;;4.01;100.00
12969;BME280;6549;53.128;8.182;2023-02-02T04:16:29;101481.38;;;4.02;100.00
12969;BME280;6549;53.128;8.182;2023-02-02T04:19:33;101484.28;;;3.97;100.00
12969;BME280;6549;53.128;8.182;2023-02-02T04:22:34;101482.19;;;3.94;100.00
12969;BME280;6549;53.128;8.182;2023-02-02T04:25:34;101481.56;;;3.89;100.00
12969;BME280;6549;53.128;8.182;2023-02-02T04:28:34;101496.94;;;3.85;100.00
12969;BME280;6549;53.128;8.182;2023-02-02T04:31:35;101489.41;;;3.82;100.00
12969;BME280;6549;53.128;8.182;2023-02-02T04:34:36;101493.88;;;3.78;100.00
12969;BME280;6549;53.128;8.182;2023-02-02T04:37:36;101494.53;;;3.75;100.00
12969;BME280;6549;53.128;8.182;2023-02-02T04:40:47;101495.00;;;3.68;100.00
12969;BME280;6549;53.128;8.182;2023-02-02T04:43:47;101493.41;;;3.58;100.00
12969;BME280;6549;53.128;8.182;2023-02-02T04:46:48;101493.91;;;3.52;100.00
12969;BME280;6549;53.128;8.182;2023-02-02T04:49:48;101492.78;;;3.44;100.00
12969;BME280;6549;53.128;8.182;2023-02-02T04:52:49;101497.28;;;3.40;100.00
12969;BME280;6549;53.128;8.182;2023-02-02T04:55:49;101498.22;;;3.36;100.00
12969;BME280;6549;53.128;8.182;2023-02-02T04:58:52;101495.00;;;3.34;100.00
12969;BME280;6549;53.128;8.182;2023-02-02T05:01:52;101492.44;;;3.29;100.00
12969;BME280;6549;53.128;8.182;2023-02-02T05:04:53;101495.31;;;3.24;100.00
12969;BME280;6549;53.128;8.182;2023-02-02T05:07:53;101496.75;;;3.21;100.00
12969;BME280;6549;53.128;8.182;2023-02-02T05:10:54;101502.03;;;3.26;100.00
12969;BME280;6549;53.128;8.182;2023-02-02T05:13:54;101505.56;;;3.27;100.00
12969;BME280;6549;53.128;8.182;2023-02-02T05:16:54;101495.00;;;3.25;100.00
12969;BME280;6549;53.128;8.182;2023-02-02T05:19:55;101505.56;;;3.27;100.00
12969;BME280;6549;53.128;8.182;2023-02-02T05:22:55;101518.50;;;3.30;100.00
12969;BME280;6549;53.128;8.182;2023-02-02T05:25:55;101512.25;;;3.29;100.00
12969;BME280;6549;53.128;8.182;2023-02-02T05:28:56;101510.34;;;3.30;100.00
12969;BME280;6549;53.128;8.182;2023-02-02T05:31:56;101522.31;;;3.29;100.00
12969;BME280;6549;53.128;8.182;2023-02-02T05:34:57;101512.56;;;3.28;100.00
12969;BME280;6549;53.128;8.182;2023-02-02T05:37:57;101514.97;;;3.29;100.00
12969;BME280;6549;53.128;8.182;2023-02-02T05:40:59;101516.59;;;3.30;100.00
12969;BME280;6549;53.128;8.182;2023-02-02T05:43:59;101515.78;;;3.30;100.00
12969;BME280;6549;53.128;8.182;2023-02-02T05:47:00;101510.34;;;3.30;100.00
12969;BME280;6549;53.128;8.182;2023-02-02T05:50:00;101524.44;;;3.32;100.00
12969;BME280;6549;53.128;8.182;2023-02-02T05:53:01;101527.91;;;3.32;100.00
12969;BME280;6549;53.128;8.182;2023-02-02T05:56:02;101524.91;;;3.34;100.00
12969;BME280;6549;53.128;8.182;2023-02-02T05:59:02;101519.97;;;3.36;100.00
12969;BME280;6549;53.128;8.182;2023-02-02T06:02:06;101526.50;;;3.35;100.00
12969;BME280;6549;53.128;8.182;2023-02-02T06:05:07;101535.75;;;3.34;100.00
12969;BME280;6549;53.128;8.182;2023-02-02T06:08:07;101534.50;;;3.31;100.00
12969;BME280;6549;53.128;8.182;2023-02-02T06:11:15;101540.22;;;3.30;100.00
12969;BME280;6549;53.128;8.182;2023-02-02T06:14:16;101542.63;;;3.31;100.00
12969;BME280;6549;53.128;8.182;2023-02-02T06:17:16;101541.34;;;3.29;100.00
12969;BME280;6549;53.128;8.182;2023-02-02T06:20:17;101546.78;;;3.29;100.00
12969;BME280;6549;53.128;8.182;2023-02-02T06:23:17;101549.81;;;3.27;100.00
12969;BME280;6549;53.128;8.182;2023-02-02T06:26:17;101548.53;;;3.25;100.00
12969;BME280;6549;53.128;8.182;2023-02-02T06:29:18;101545.81;;;3.25;100.00
12969;BME280;6549;53.128;8.182;2023-02-02T06:32:18;101554.25;;;3.23;100.00
12969;BME280;6549;53.128;8.182;2023-02-02T06:35:18;101558.13;;;3.22;100.00
12969;BME280;6549;53.128;8.182;2023-02-02T06:38:19;101558.59;;;3.24;100.00
12969;BME280;6549;53.128;8.182;2023-02-02T06:41:19;101582.09;;;3.29;100.00
12969;BME280;6549;53.128;8.182;2023-02-02T06:44:20;101572.81;;;3.30;100.00
12969;BME280;6549;53.128;8.182;2023-02-02T06:47:20;101576.19;;;3.27;100.00
12969;BME280;6549;53.128;8.182;2023-02-02T06:50:20;101585.44;;;3.26;100.00
12969;BME280;6549;53.128;8.182;2023-02-02T06:53:21;101581.13;;;3.25;100.00
12969;BME280;6549;53.128;8.182;2023-02-02T06:56:22;101589.28;;;3.25;100.00
12969;BME280;6549;53.128;8.182;2023-02-02T06:59:22;101590.06;;;3.25;100.00
12969;BME280;6549;53.128;8.182;2023-02-02T07:02:23;101592.78;;;3.25;100.00
12969;BME280;6549;53.128;8.182;2023-02-02T07:05:23;101593.59;;;3.26;100.00
12969;BME280;6549;53.128;8.182;2023-02-02T07:08:24;101600.28;;;3.28;100.00
12969;BME280;6549;53.128;8.182;2023-02-02T07:11:24;101595.66;;;3.29;100.00
12969;BME280;6549;53.128;8.182;2023-02-02T07:14:24;101607.50;;;3.33;100.00
12969;BME280;6549;53.128;8.182;2023-02-02T07:17:25;101616.16;;;3.35;100.00
12969;BME280;6549;53.128;8.182;2023-02-02T07:20:26;101616.63;;;3.37;100.00
12969;BME280;6549;53.128;8.182;2023-02-02T07:23:27;101612.47;;;3.39;100.00
12969;BME280;6549;53.128;8.182;2023-02-02T07:26:28;101612.94;;;3.41;100.00
12969;BME280;6549;53.128;8.182;2023-02-02T07:29:28;101615.66;;;3.41;100.00
12969;BME280;6549;53.128;8.182;2023-02-02T07:32:29;101632.16;;;3.45;100.00
12969;BME280;6549;53.128;8.182;2023-02-02T07:35:29;101628.81;;;3.48;100.00
12969;BME280;6549;53.128;8.182;2023-02-02T07:38:29;101634.91;;;3.53;100.00
12969;BME280;6549;53.128;8.182;2023-02-02T07:41:30;101635.53;;;3.59;100.00
12969;BME280;6549;53.128;8.182;2023-02-02T07:44:30;101644.66;;;3.63;100.00
12969;BME280;6549;53.128;8.182;2023-02-02T07:47:31;101643.22;;;3.66;100.00
12969;BME280;6549;53.128;8.182;2023-02-02T07:50:31;101650.59;;;3.74;100.00
12969;BME280;6549;53.128;8.182;2023-02-02T07:53:32;101655.06;;;3.78;100.00
12969;BME280;6549;53.128;8.182;2023-02-02T07:56:32;101663.41;;;3.82;100.00
12969;BME280;6549;53.128;8.182;2023-02-02T07:59:32;101665.16;;;3.86;100.00
12969;BME280;6549;53.128;8.182;2023-02-02T08:02:33;101664.53;;;3.89;100.00
12969;BME280;6549;53.128;8.182;2023-02-02T08:05:33;101663.91;;;3.92;100.00
12969;BME280;6549;53.128;8.182;2023-02-02T08:08:34;101666.28;;;3.94;100.00
12969;BME280;6549;53.128;8.182;2023-02-02T08:11:35;101664.56;;;3.98;100.00
12969;BME280;6549;53.128;8.182;2023-02-02T08:14:36;101669.03;;;4.02;100.00
12969;BME280;6549;53.128;8.182;2023-02-02T08:17:36;101678.97;;;4.07;100.00
12969;BME280;6549;53.128;8.182;2023-02-02T08:20:37;101669.19;;;4.15;100.00
12969;BME280;6549;53.128;8.182;2023-02-02T08:23:39;101680.53;;;4.17;100.00
12969;BME280;6549;53.128;8.182;2023-02-02T08:26:39;101686.16;;;4.20;100.00
12969;BME280;6549;53.128;8.182;2023-02-02T08:29:40;101684.72;;;4.23;100.00
12969;BME280;6549;53.128;8.182;2023-02-02T08:32:40;101692.06;;;4.31;100.00
12969;BME280;6549;53.128;8.182;2023-02-02T08:35:41;101699.44;;;4.39;100.00
12969;BME280;6549;53.128;8.182;2023-02-02T08:38:41;101702.00;;;4.44;100.00
12969;BME280;6549;53.128;8.182;2023-02-02T08:41:42;101699.13;;;4.49;100.00
12969;BME280;6549;53.128;8.182;2023-02-02T08:44:42;101715.75;;;4.56;100.00
12969;BME280;6549;53.128;8.182;2023-02-02T08:47:42;101714.00;;;4.60;100.00
12969;BME280;6549;53.128;8.182;2023-02-02T08:50:43;101723.13;;;4.64;100.00
12969;BME280;6549;53.128;8.182;2023-02-02T08:53:44;101726.81;;;4.68;100.00
12969;BME280;6549;53.128;8.182;2023-02-02T08:56:44;101730.00;;;4.70;100.00
12969;BME280;6549;53.128;8.182;2023-02-02T08:59:45;101726.00;;;4.76;100.00
12969;BME280;6549;53.128;8.182;2023-02-02T09:02:49;101733.34;;;4.84;100.00
12969;BME280;6549;53.128;8.182;2023-02-02T09:05:49;101734.28;;;4.88;100.00
12969;BME280;6549;53.128;8.182;2023-02-02T09:08:49;101742.31;;;4.93;100.00
12969;BME280;6549;53.128;8.182;2023-02-02T09:11:50;101744.88;;;4.98;100.00
12969;BME280;6549;53.128;8.182;2023-02-02T09:14:50;101752.38;;;5.02;100.00
12969;BME280;6549;53.128;8.182;2023-02-02T09:17:51;101752.69;;;5.09;100.00
12969;BME280;6549;53.128;8.182;2023-02-02T09:20:51;101753.47;;;5.18;100.00
12969;BME280;6549;53.128;8.182;2023-02-02T09:23:52;101754.88;;;5.24;100.00
12969;BME280;6549;53.128;8.182;2023-02-02T09:26:53;101761.13;;;5.33;100.00
12969;BME280;6549;53.128;8.182;2023-02-02T09:29:53;101764.47;;;5.38;100.00
12969;BME280;6549;53.128;8.182;2023-02-02T09:32:53;101770.22;;;5.46;100.00
12969;BME280;6549;53.128;8.182;2023-02-02T09:35:54;101775.19;;;5.52;100.00
12969;BME280;6549;53.128;8.182;2023-02-02T09:38:54;101776.91;;;5.57;100.00
12969;BME280;6549;53.128;8.182;2023-02-02T09:42:58;101790.22;;;5.58;100.00
12969;BME280;6549;53.128;8.182;2023-02-02T09:45:40;101785.56;;;5.59;100.00
12969;BME280;6549;53.128;8.182;2023-02-02T09:49:00;101791.16;;;5.62;100.00
12969;BME280;6549;53.128;8.182;2023-02-02T09:52:08;101800.31;;;5.66;100.00
12969;BME280;6549;53.128;8.182;2023-02-02T10:01:33;101807.16;;;5.72;100.00
12969;BME280;6549;53.128;8.182;2023-02-02T10:04:37;101808.09;;;5.76;100.00
12969;BME280;6549;53.128;8.182;2023-02-02T10:07:43;101807.13;;;5.90;100.00
12969;BME280;6549;53.128;8.182;2023-02-02T10:10:45;101805.63;;;6.01;100.00
12969;BME280;6549;53.128;8.182;2023-02-02T10:13:47;101813.81;;;6.01;100.00
12969;BME280;6549;53.128;8.182;2023-02-02T10:16:52;101818.75;;;6.07;100.00
12969;BME280;6549;53.128;8.182;2023-02-02T10:19:57;101819.22;;;6.09;100.00
12969;BME280;6549;53.128;8.182;2023-02-02T10:23:14;101825.31;;;6.15;100.00
12969;BME280;6549;53.128;8.182;2023-02-02T10:26:27;101831.84;;;6.22;100.00
12969;BME280;6549;53.128;8.182;2023-02-02T10:29:59;101825.66;;;6.34;100.00
12969;BME280;6549;53.128;8.182;2023-02-02T10:33:09;101836.66;;;6.46;100.00
12969;BME280;6549;53.128;8.182;2023-02-02T10:36:35;101839.75;;;6.65;100.00
12969;BME280;6549;53.128;8.182;2023-02-02T10:43:41;101840.34;;;6.71;100.00
12969;BME280;6549;53.128;8.182;2023-02-02T10:46:52;101857.19;;;6.73;100.00
12969;BME280;6549;53.128;8.182;2023-02-02T10:53:00;101859.59;;;6.74;100.00
12969;BME280;6549;53.128;8.182;2023-02-02T10:56:05;101864.06;;;6.79;100.00
12969;BME280;6549;53.128;8.182;2023-02-02T10:59:18;101868.06;;;6.82;100.00
12969;BME280;6549;53.128;8.182;2023-02-02T11:02:20;101856.38;;;6.81;100.00
12969;BME280;6549;53.128;8.182;2023-02-02T11:05:23;101863.06;;;6.84;100.00
12969;BME280;6549;53.128;8.182;2023-02-02T11:08:46;101861.47;;;6.83;100.00
12969;BME280;6549;53.128;8.182;2023-02-02T11:12:00;101869.47;;;6.88;100.00
12969;BME280;6549;53.128;8.182;2023-02-02T11:15:21;101867.88;;;6.87;100.00
12969;BME280;6549;53.128;8.182;2023-02-02T11:18:29;101876.53;;;6.89;100.00
12969;BME280;6549;53.128;8.182;2023-02-02T11:21:33;101871.09;;;6.89;100.00
12969;BME280;6549;53.128;8.182;2023-02-02T11:24:39;101869.97;;;6.90;100.00
12969;BME280;6549;53.128;8.182;2023-02-02T11:27:43;101871.34;;;6.96;100.00
12969;BME280;6549;53.128;8.182;2023-02-02T11:30:47;101868.41;;;7.01;100.00
12969;BME280;6549;53.128;8.182;2023-02-02T11:33:49;101869.81;;;7.07;100.00
12969;BME280;6549;53.128;8.182;2023-02-02T11:36:57;101876.66;;;7.13;100.00
12969;BME280;6549;53.128;8.182;2023-02-02T11:40:25;101878.38;;;7.17;100.00
12969;BME280;6549;53.128;8.182;2023-02-02T11:43:32;101886.06;;;7.24;100.00
12969;BME280;6549;53.128;8.182;2023-02-02T11:46:37;101881.53;;;7.28;100.00
12969;BME280;6549;53.128;8.182;2023-02-02T11:49:40;101881.53;;;7.28;100.00
12969;BME280;6549;53.128;8.182;2023-02-02T11:52:44;101874.13;;;7.29;100.00
12969;BME280;6549;53.128;8.182;2023-02-02T11:55:45;101869.91;;;7.31;100.00
12969;BME280;6549;53.128;8.182;2023-02-02T11:58:50;101873.56;;;7.35;100.00
12969;BME280;6549;53.128;8.182;2023-02-02T12:01:50;101874.47;;;7.39;100.00
12969;BME280;6549;53.128;8.182;2023-02-02T12:04:53;101878.38;;;7.38;100.00
12969;BME280;6549;53.128;8.182;2023-02-02T12:07:54;101879.94;;;7.39;100.00
12969;BME280;6549;53.128;8.182;2023-02-02T12:11:00;101881.13;;;7.38;100.00
12969;BME280;6549;53.128;8.182;2023-02-02T12:17:38;101872.91;;;7.38;100.00
12969;BME280;6549;53.128;8.182;2023-02-02T12:21:03;101861.75;;;7.43;100.00
12969;BME280;6549;53.128;8.182;2023-02-02T12:24:28;101864.25;;;7.48;100.00
12969;BME280;6549;53.128;8.182;2023-02-02T12:31:08;101875.09;;;7.57;100.00
12969;BME280;6549;53.128;8.182;2023-02-02T12:41:21;101872.44;;;7.81;100.00
12969;BME280;6549;53.128;8.182;2023-02-02T12:44:43;101872.69;;;7.88;100.00
12969;BME280;6549;53.128;8.182;2023-02-02T12:51:40;101866.44;;;8.00;100.00
12969;BME280;6549;53.128;8.182;2023-02-02T13:01:42;101855.59;;;8.03;100.00
12969;BME280;6549;53.128;8.182;2023-02-02T13:11:11;101855.72;;;7.95;100.00
12969;BME280;6549;53.128;8.182;2023-02-02T13:14:31;101846.22;;;7.92;100.00
12969;BME280;6549;53.128;8.182;2023-02-02T13:17:47;101850.13;;;7.91;100.00
12969;BME280;6549;53.128;8.182;2023-02-02T13:20:53;101845.56;;;7.83;100.00
12969;BME280;6549;53.128;8.182;2023-02-02T13:23:56;101850.56;;;7.81;100.00
12969;BME280;6549;53.128;8.182;2023-02-02T13:27:01;101855.13;;;7.77;100.00
12969;BME280;6549;53.128;8.182;2023-02-02T13:30:34;101856.25;;;7.76;100.00
12969;BME280;6549;53.128;8.182;2023-02-02T13:33:37;101860.91;;;7.76;100.00
12969;BME280;6549;53.128;8.182;2023-02-02T13:36:38;101863.75;;;7.79;100.00
12969;BME280;6549;53.128;8.182;2023-02-02T13:39:51;101863.09;;;7.82;100.00
12969;BME280;6549;53.128;8.182;2023-02-02T13:43:05;101862.88;;;7.87;100.00
12969;BME280;6549;53.128;8.182;2023-02-02T13:46:20;101863.81;;;7.91;100.00
12969;BME280;6549;53.128;8.182;2023-02-02T13:49:32;101864.13;;;7.90;100.00
12969;BME280;6549;53.128;8.182;2023-02-02T13:52:49;101865.63;;;7.87;100.00
12969;BME280;6549;53.128;8.182;2023-02-02T14:02:52;101864.59;;;7.92;100.00
12969;BME280;6549;53.128;8.182;2023-02-02T14:06:14;101865.38;;;7.92;100.00
12969;BME280;6549;53.128;8.182;2023-02-02T14:09:17;101868.81;;;7.89;100.00
12969;BME280;6549;53.128;8.182;2023-02-02T14:12:27;101874.38;;;7.81;100.00
12969;BME280;6549;53.128;8.182;2023-02-02T14:15:38;101867.50;;;7.75;100.00
12969;BME280;6549;53.128;8.182;2023-02-02T14:25:45;101873.66;;;7.59;100.00
12969;BME280;6549;53.128;8.182;2023-02-02T14:28:48;101879.81;;;7.56;100.00
12969;BME280;6549;53.128;8.182;2023-02-02T14:31:52;101877.06;;;7.56;100.00
12969;BME280;6549;53.128;8.182;2023-02-02T14:39:09;101880.53;;;7.45;100.00
12969;BME280;6549;53.128;8.182;2023-02-02T14:48:30;101893.94;;;7.26;100.00
12969;BME280;6549;53.128;8.182;2023-02-02T14:51:32;101892.22;;;7.21;100.00
12969;BME280;6549;53.128;8.182;2023-02-02T14:54:35;101895.94;;;7.16;100.00
12969;BME280;6549;53.128;8.182;2023-02-02T14:57:37;101905.78;;;7.09;100.00
12969;BME280;6549;53.128;8.182;2023-02-02T15:00:38;101897.78;;;7.04;100.00
12969;BME280;6549;53.128;8.182;2023-02-02T15:03:56;101905.06;;;7.00;100.00
12969;BME280;6549;53.128;8.182;2023-02-02T15:13:56;101913.38;;;6.83;100.00
12969;BME280;6549;53.128;8.182;2023-02-02T15:23:38;101925.72;;;6.68;100.00
12969;BME280;6549;53.128;8.182;2023-02-02T15:26:40;101927.81;;;6.62;100.00
12969;BME280;6549;53.128;8.182;2023-02-02T15:29:44;101926.53;;;6.60;100.00
12969;BME280;6549;53.128;8.182;2023-02-02T15:32:47;101936.19;;;6.57;100.00
12969;BME280;6549;53.128;8.182;2023-02-02T15:35:48;101945.38;;;6.53;100.00
12969;BME280;6549;53.128;8.182;2023-02-02T15:38:51;101946.03;;;6.50;100.00
12969;BME280;6549;53.128;8.182;2023-02-02T15:41:53;101945.88;;;6.46;100.00
12969;BME280;6549;53.128;8.182;2023-02-02T15:48:32;101949.63;;;6.42;100.00
12969;BME280;6549;53.128;8.182;2023-02-02T15:51:33;101951.06;;;6.39;100.00
12969;BME280;6549;53.128;8.182;2023-02-02T15:54:34;101959.44;;;6.34;100.00
12969;BME280;6549;53.128;8.182;2023-02-02T15:57:37;101963.00;;;6.26;100.00
12969;BME280;6549;53.128;8.182;2023-02-02T16:00:39;101965.91;;;6.21;100.00
12969;BME280;6549;53.128;8.182;2023-02-02T16:06:52;101972.19;;;6.13;100.00
12969;BME280;6549;53.128;8.182;2023-02-02T16:09:53;101971.41;;;6.04;100.00
12969;BME280;6549;53.128;8.182;2023-02-02T16:12:53;101965.66;;;5.97;100.00
12969;BME280;6549;53.128;8.182;2023-02-02T16:16:00;101969.03;;;5.94;100.00
12969;BME280;6549;53.128;8.182;2023-02-02T16:19:12;101966.94;;;5.91;100.00
12969;BME280;6549;53.128;8.182;2023-02-02T16:22:16;101976.06;;;5.86;100.00
12969;BME280;6549;53.128;8.182;2023-02-02T16:25:18;101973.66;;;5.84;100.00
12969;BME280;6549;53.128;8.182;2023-02-02T16:28:20;101973.50;;;5.81;100.00
12969;BME280;6549;53.128;8.182;2023-02-02T16:31:21;101979.31;;;5.79;100.00
12969;BME280;6549;53.128;8.182;2023-02-02T16:37:40;101982.50;;;5.73;100.00
12969;BME280;6549;53.128;8.182;2023-02-02T16:40:41;101982.34;;;5.78;100.00
12969;BME280;6549;53.128;8.182;2023-02-02T16:43:42;101976.59;;;5.79;100.00
12969;BME280;6549;53.128;8.182;2023-02-02T16:46:44;101973.19;;;5.82;100.00
12969;BME280;6549;53.128;8.182;2023-02-02T16:49:46;101970.47;;;5.82;100.00
12969;BME280;6549;53.128;8.182;2023-02-02T16:53:00;101968.53;;;5.83;100.00
12969;BME280;6549;53.128;8.182;2023-02-02T16:56:03;101964.69;;;5.75;100.00
12969;BME280;6549;53.128;8.182;2023-02-02T16:59:21;101974.66;;;5.71;100.00
12969;BME280;6549;53.128;8.182;2023-02-02T17:05:31;101977.56;;;5.66;100.00
12969;BME280;6549;53.128;8.182;2023-02-02T17:08:37;101962.47;;;5.60;100.00
12969;BME280;6549;53.128;8.182;2023-02-02T17:11:38;101958.78;;;5.56;100.00
12969;BME280;6549;53.128;8.182;2023-02-02T17:14:49;101970.16;;;5.58;100.00
12969;BME280;6549;53.128;8.182;2023-02-02T17:17:51;101962.63;;;5.55;100.00
12969;BME280;6549;53.128;8.182;2023-02-02T17:20:53;101967.94;;;5.52;100.00
12969;BME280;6549;53.128;8.182;2023-02-02T17:23:56;101972.75;;;5.55;100.00
12969;BME280;6549;53.128;8.182;2023-02-02T17:26:57;101974.34;;;5.56;100.00
12969;BME280;6549;53.128;8.182;2023-02-02T17:29:59;101975.16;;;5.56;100.00
12969;BME280;6549;53.128;8.182;2023-02-02T17:33:00;101978.84;;;5.52;100.00
12969;BME280;6549;53.128;8.182;2023-02-02T17:36:01;101974.19;;;5.52;100.00
12969;BME280;6549;53.128;8.182;2023-02-02T17:39:02;101970.50;;;5.48;100.00
12969;BME280;6549;53.128;8.182;2023-02-02T17:42:03;101974.34;;;5.47;100.00
12969;BME280;6549;53.128;8.182;2023-02-02T17:45:10;101979.81;;;5.47;100.00
12969;BME280;6549;53.128;8.182;2023-02-02T17:48:13;101962.00;;;5.50;100.00
12969;BME280;6549;53.128;8.182;2023-02-02T17:51:14;101956.22;;;5.42;100.00
12969;BME280;6549;53.128;8.182;2023-02-02T17:54:18;101956.53;;;5.41;100.00
12969;BME280;6549;53.128;8.182;2023-02-02T17:57:18;101945.19;;;5.39;100.00
12969;BME280;6549;53.128;8.182;2023-02-02T18:00:21;101950.78;;;5.34;100.00
12969;BME280;6549;53.128;8.182;2023-02-02T18:03:27;101954.16;;;5.31;100.00
12969;BME280;6549;53.128;8.182;2023-02-02T18:06:28;101942.28;;;5.27;100.00
12969;BME280;6549;53.128;8.182;2023-02-02T18:09:29;101942.91;;;5.24;100.00
12969;BME280;6549;53.128;8.182;2023-02-02T18:12:33;101945.34;;;5.25;100.00